Aviation Digital Data Service (ADDS)

Output produced by METARs form (1944 UTC 28 April 2017)
found at http://aviationweather.gov/adds/metars/
 
KSTS 281853Z 35007KT 10SM CLR 21/04 A3006 RMK AO2 SLP173 T02060044
KSTS 281720Z 2818/2918 35016G22KT P6SM SCT250 
     FM282100 32010G16KT P6SM FEW250 
     FM290400 33005KT P6SM FEW250 
     FM290900 34011KT P6SM SKC 
     FM291500 35011G17KT P6SM SKC